createdAt,value
2018-01-27T00:01:59.378Z,68.75
2018-01-27T00:04:27.258Z,68.29
2018-01-27T00:06:55.116Z,68.12
2018-01-27T00:09:23.011Z,67.88
2018-01-27T00:11:50.921Z,67.56
2018-01-27T00:14:18.816Z,67.47
2018-01-27T00:16:46.642Z,66.95
2018-01-27T00:19:14.738Z,66.95
2018-01-27T00:21:42.575Z,66.84
2018-01-27T00:24:10.430Z,66.88
2018-01-27T00:26:38.324Z,66.27
2018-01-27T00:29:06.177Z,66.36
2018-01-27T00:31:34.015Z,66.81
2018-01-27T00:34:01.919Z,66.56
2018-01-27T00:36:29.770Z,66.20
2018-01-27T00:38:57.867Z,66.52
2018-01-27T00:41:26.762Z,66.62
2018-01-27T00:43:54.598Z,66.65
2018-01-27T00:46:22.442Z,66.93
2018-01-27T00:48:50.337Z,66.61
2018-01-27T00:51:18.171Z,66.69
2018-01-27T00:53:46.903Z,67.21
2018-01-27T00:56:14.783Z,67.33
2018-01-27T00:58:42.620Z,67.30
2018-01-27T01:01:10.531Z,67.32
2018-01-27T01:03:39.100Z,67.12
2018-01-27T01:06:06.978Z,67.05
2018-01-27T01:08:34.831Z,67.06
2018-01-27T01:11:02.739Z,67.31
2018-01-27T01:13:30.584Z,67.10
2018-01-27T01:15:58.422Z,66.95
2018-01-27T01:18:26.322Z,67.37
2018-01-27T01:20:54.213Z,66.82
2018-01-27T01:23:22.679Z,66.67
2018-01-27T01:25:50.565Z,67.15
2018-01-27T01:28:19.372Z,66.97
2018-01-27T01:30:48.188Z,67.08
2018-01-27T01:33:16.086Z,67.09
2018-01-27T01:35:43.938Z,67.50
2018-01-27T01:38:11.818Z,67.39
2018-01-27T01:40:40.288Z,67.18
2018-01-27T01:43:13.636Z,67.22
2018-01-27T01:45:41.539Z,66.96
2018-01-27T01:48:09.413Z,67.31
2018-01-27T01:50:37.293Z,67.24
2018-01-27T01:53:05.201Z,67.15
2018-01-27T01:55:33.043Z,67.23
2018-01-27T01:58:01.896Z,67.16
2018-01-27T02:00:29.786Z,67.38
2018-01-27T02:02:57.619Z,67.21
2018-01-27T02:05:25.481Z,66.93
2018-01-27T02:07:53.370Z,67.12
2018-01-27T02:10:21.232Z,67.20
2018-01-27T02:12:49.082Z,67.54
2018-01-27T02:15:17.216Z,67.02
2018-01-27T02:17:45.054Z,66.78
2018-01-27T02:20:12.974Z,67.21
2018-01-27T02:22:40.938Z,67.21
2018-01-27T02:25:08.787Z,67.01
2018-01-27T02:27:36.642Z,67.02
2018-01-27T02:30:04.600Z,66.97
2018-01-27T02:32:32.479Z,66.74
2018-01-27T02:35:00.354Z,66.71
2018-01-27T02:37:29.254Z,66.99
2018-01-27T02:39:57.123Z,67.18
2018-01-27T02:42:25.474Z,66.99
2018-01-27T02:44:53.385Z,66.66
2018-01-27T02:47:21.253Z,66.56
2018-01-27T02:49:49.100Z,67.08
2018-01-27T02:52:17.240Z,67.39
2018-01-27T02:54:45.096Z,67.51
2018-01-27T02:57:12.937Z,67.55
2018-01-27T02:59:40.831Z,67.57
2018-01-27T03:02:08.686Z,68.17
2018-01-27T03:04:37.386Z,68.39
2018-01-27T03:07:05.334Z,68.81
2018-01-27T03:09:33.206Z,69.41
2018-01-27T03:12:01.080Z,69.68
2018-01-27T03:14:28.970Z,69.97
2018-01-27T03:16:56.829Z,70.33
2018-01-27T03:19:24.666Z,70.41
2018-01-27T03:21:52.585Z,70.62
2018-01-27T03:24:20.437Z,70.68
2018-01-27T03:26:48.276Z,70.86
2018-01-27T03:29:16.166Z,71.20
2018-01-27T03:31:44.347Z,71.45
2018-01-27T03:34:12.190Z,71.71
2018-01-27T03:36:40.092Z,71.76
2018-01-27T03:39:07.938Z,71.62
2018-01-27T03:41:35.796Z,71.66
2018-01-27T03:44:04.086Z,71.92
2018-01-27T03:46:31.936Z,72.20
2018-01-27T03:48:59.783Z,72.79
2018-01-27T03:51:27.686Z,72.59
2018-01-27T03:53:55.538Z,72.18
2018-01-27T03:56:23.470Z,72.26
2018-01-27T03:58:51.379Z,72.55
2018-01-27T04:01:19.245Z,72.40
2018-01-27T04:03:47.110Z,72.13
2018-01-27T04:06:15.018Z,72.45
2018-01-27T04:08:42.866Z,72.69
2018-01-27T04:11:11.682Z,73.02
2018-01-27T04:13:39.582Z,73.22
2018-01-27T04:16:07.427Z,72.61
2018-01-27T04:18:35.380Z,72.29
2018-01-27T04:21:03.313Z,72.61
2018-01-27T04:23:31.197Z,73.08
2018-01-27T04:25:59.043Z,72.75
2018-01-27T04:28:26.949Z,72.49
2018-01-27T04:30:54.824Z,72.22
2018-01-27T04:33:22.689Z,72.34
2018-01-27T04:35:50.811Z,72.79
2018-01-27T04:38:18.696Z,72.48
2018-01-27T04:40:47.469Z,72.53
2018-01-27T04:43:15.452Z,72.57
2018-01-27T04:45:43.418Z,72.23
2018-01-27T04:48:11.307Z,71.83
2018-01-27T04:50:39.196Z,71.66
2018-01-27T04:53:07.043Z,71.77
2018-01-27T04:55:34.902Z,71.63
2018-01-27T04:58:02.810Z,71.35
2018-01-27T05:00:30.686Z,71.65
2018-01-27T05:02:58.897Z,71.81
2018-01-27T05:05:26.782Z,71.95
2018-01-27T05:07:55.348Z,72.21
2018-01-27T05:10:23.219Z,72.54
2018-01-27T05:12:51.437Z,72.73
2018-01-27T05:15:19.282Z,72.41
2018-01-27T05:17:47.165Z,72.20
2018-01-27T05:20:15.046Z,72.38
2018-01-27T05:22:42.896Z,72.41
2018-01-27T05:25:10.737Z,72.01
2018-01-27T05:27:38.638Z,72.28
2018-01-27T05:30:06.487Z,72.81
2018-01-27T05:32:34.333Z,72.93
2018-01-27T05:35:02.220Z,73.12
2018-01-27T05:37:30.087Z,72.91
2018-01-27T05:42:30.666Z,73.25
2018-01-27T05:44:58.472Z,73.38
2018-01-27T05:47:26.354Z,73.44
2018-01-27T05:49:54.448Z,73.41
2018-01-27T05:52:22.258Z,73.54
2018-01-27T05:54:50.077Z,73.10
2018-01-27T05:57:18.045Z,73.06
2018-01-27T05:59:45.885Z,73.68
2018-01-27T06:02:13.698Z,73.15
2018-01-27T06:04:41.577Z,71.92
2018-01-27T06:07:09.387Z,70.03
2018-01-27T06:09:37.199Z,67.78
2018-01-27T06:12:05.138Z,65.54
2018-01-27T06:14:32.987Z,63.26
2018-01-27T06:17:00.810Z,62.54
2018-01-27T06:19:28.727Z,61.59
2018-01-27T06:21:56.606Z,59.79
2018-01-27T06:24:24.470Z,58.79
2018-01-27T06:26:53.208Z,58.34
2018-01-27T06:29:21.019Z,58.00
2018-01-27T06:31:48.862Z,56.94
2018-01-27T06:40:24.618Z,54.13
2018-01-27T06:42:52.786Z,53.57
2018-01-27T06:45:20.680Z,53.08
2018-01-27T06:47:48.943Z,53.03
2018-01-27T06:50:16.757Z,52.59
2018-01-27T06:52:44.617Z,52.11
2018-01-27T06:55:12.430Z,50.80
2018-01-27T06:57:40.307Z,50.60
2018-01-27T07:00:08.185Z,50.22
2018-01-27T07:02:35.994Z,49.53
2018-01-27T07:05:03.843Z,49.73
2018-01-27T07:07:31.713Z,49.28
2018-01-27T07:09:59.540Z,49.54
2018-01-27T07:12:27.387Z,48.69
2018-01-27T07:14:55.251Z,48.14
2018-01-27T07:17:23.068Z,47.20
2018-01-27T07:19:50.936Z,47.07
2018-01-27T07:22:18.778Z,47.16
2018-01-27T07:24:46.634Z,48.30
2018-01-27T07:27:14.627Z,48.75
2018-01-27T07:29:42.755Z,47.68
2018-01-27T07:32:10.567Z,49.05
2018-01-27T07:34:39.132Z,49.22
2018-01-27T07:37:08.217Z,49.41
2018-01-27T07:39:36.130Z,49.37
2018-01-27T07:42:03.967Z,48.60
2018-01-27T07:44:32.087Z,49.34
2018-01-27T07:47:00.247Z,48.16
2018-01-27T07:49:28.233Z,50.25
2018-01-27T07:51:56.110Z,50.79
2018-01-27T07:54:23.966Z,50.04
2018-01-27T07:56:51.794Z,48.92
2018-01-27T07:59:19.654Z,48.71
2018-01-27T08:01:47.483Z,48.63
2018-01-27T08:04:15.279Z,49.20
2018-01-27T08:06:43.137Z,50.25
2018-01-27T08:09:10.976Z,49.27
2018-01-27T08:11:38.813Z,47.78
2018-01-27T08:14:06.714Z,47.72
2018-01-27T08:16:37.664Z,47.88
2018-01-27T08:19:05.575Z,46.50
2018-01-27T08:21:33.791Z,47.30
2018-01-27T08:24:01.723Z,47.97
2018-01-27T08:26:29.564Z,47.42
2018-01-27T08:28:57.478Z,47.76
2018-01-27T08:31:25.306Z,46.28
2018-01-27T08:33:53.146Z,46.41
2018-01-27T08:36:21.054Z,46.16
2018-01-27T08:38:48.873Z,44.67
2018-01-27T08:41:17.662Z,44.68
2018-01-27T08:43:45.549Z,43.97
2018-01-27T08:46:13.386Z,44.22
2018-01-27T08:48:41.220Z,44.02
2018-01-27T08:51:09.243Z,45.06
2018-01-27T08:53:37.085Z,44.64
2018-01-27T08:56:04.947Z,43.51
2018-01-27T08:58:32.843Z,42.99
2018-01-27T09:01:00.710Z,41.75
2018-01-27T09:03:28.527Z,42.05
2018-01-27T09:05:56.446Z,42.10
2018-01-27T09:08:24.260Z,41.23
2018-01-27T09:10:52.074Z,41.31
2018-01-27T09:13:19.981Z,40.79
2018-01-27T09:15:47.809Z,40.46
2018-01-27T09:18:15.641Z,40.87
2018-01-27T09:20:43.527Z,40.16
2018-01-27T09:23:11.342Z,38.76
2018-01-27T09:25:39.178Z,40.60
2018-01-27T09:28:07.076Z,42.08
2018-01-27T09:30:35.530Z,41.12
2018-01-27T09:33:03.350Z,38.75
2018-01-27T09:35:31.246Z,40.43
2018-01-27T09:37:59.058Z,39.91
2018-01-27T09:40:26.881Z,39.43
2018-01-27T09:42:54.746Z,41.21
2018-01-27T09:45:22.588Z,41.48
2018-01-27T09:47:50.378Z,40.33
2018-01-27T09:50:18.273Z,38.57
2018-01-27T09:52:46.324Z,40.00
2018-01-27T09:55:14.237Z,39.99
2018-01-27T09:57:42.127Z,39.84
2018-01-27T10:00:09.986Z,38.99
2018-01-27T10:02:37.794Z,38.83
2018-01-27T10:05:05.886Z,38.87
2018-01-27T10:07:33.734Z,38.08
2018-01-27T10:10:01.578Z,38.57
2018-01-27T10:12:29.477Z,37.78
2018-01-27T10:14:57.282Z,37.92
2018-01-27T10:17:25.146Z,38.80
2018-01-27T10:19:53.027Z,40.51
2018-01-27T10:22:20.857Z,40.68
2018-01-27T10:24:48.716Z,39.34
2018-01-27T10:27:17.233Z,40.58
2018-01-27T10:29:45.057Z,39.67
2018-01-27T10:32:12.902Z,38.98
2018-01-27T10:34:40.818Z,39.76
2018-01-27T10:37:08.648Z,40.06
2018-01-27T10:39:36.470Z,41.21
2018-01-27T10:42:04.450Z,41.67
2018-01-27T10:44:32.313Z,40.37
2018-01-27T10:47:00.173Z,41.50
2018-01-27T10:49:28.086Z,41.25
2018-01-27T10:51:56.010Z,41.80
2018-01-27T10:54:23.914Z,41.92
2018-01-27T10:56:51.790Z,43.60
2018-01-27T10:59:19.595Z,43.01
2018-01-27T11:01:47.415Z,43.73
2018-01-27T11:04:15.262Z,43.86
2018-01-27T11:06:43.080Z,43.27
2018-01-27T11:09:10.906Z,41.96
2018-01-27T11:11:38.786Z,41.65
2018-01-27T11:14:06.611Z,40.91
2018-01-27T11:16:40.357Z,40.41
2018-01-27T11:19:08.182Z,38.43
2018-01-27T11:21:35.994Z,37.30
2018-01-27T11:24:03.935Z,38.40
2018-01-27T11:26:31.842Z,38.28
2018-01-27T11:28:59.670Z,35.77
2018-01-27T11:31:27.545Z,38.59
2018-01-27T11:33:55.350Z,36.93
2018-01-27T11:36:23.174Z,34.99
2018-01-27T11:38:51.049Z,34.29
2018-01-27T11:41:18.894Z,34.90
2018-01-27T11:43:46.745Z,34.15
2018-01-27T11:46:14.945Z,32.19
2018-01-27T11:48:42.851Z,32.22
2018-01-27T11:51:10.734Z,34.06
2018-01-27T11:53:38.670Z,32.21
2018-01-27T11:56:06.825Z,31.78
2018-01-27T11:58:34.725Z,31.21
2018-01-27T12:01:02.632Z,32.24
2018-01-27T12:03:30.538Z,32.89
2018-01-27T12:05:58.391Z,31.62
2018-01-27T12:08:26.307Z,34.25
2018-01-27T12:10:54.191Z,32.06
2018-01-27T12:13:22.030Z,32.78
2018-01-27T12:15:49.962Z,32.25
2018-01-27T12:18:17.818Z,34.59
2018-01-27T12:20:45.658Z,32.28
2018-01-27T12:23:13.822Z,33.64
2018-01-27T12:25:41.675Z,33.17
2018-01-27T12:28:09.522Z,32.05
2018-01-27T12:30:37.427Z,31.70
2018-01-27T12:33:05.359Z,31.46
2018-01-27T12:35:33.213Z,31.30
2018-01-27T12:38:01.106Z,31.16
2018-01-27T12:40:29.029Z,31.05
2018-01-27T12:42:56.894Z,29.75
2018-01-27T12:45:24.811Z,31.65
2018-01-27T12:47:52.687Z,31.01
2018-01-27T12:50:20.619Z,31.05
2018-01-27T12:52:48.587Z,31.80
2018-01-27T12:55:16.423Z,31.59
2018-01-27T12:57:45.359Z,31.29
2018-01-27T13:00:13.278Z,31.22
2018-01-27T13:02:41.131Z,30.27
2018-01-27T13:05:08.988Z,29.83
2018-01-27T13:07:36.895Z,29.18
2018-01-27T13:10:04.924Z,31.03
2018-01-27T13:12:32.763Z,30.30
2018-01-27T13:15:01.094Z,30.11
2018-01-27T13:17:28.931Z,30.07
2018-01-27T13:19:56.780Z,29.99
2018-01-27T13:22:24.727Z,27.87
2018-01-27T13:24:52.581Z,26.69
2018-01-27T13:27:20.449Z,27.70
2018-01-27T13:29:48.347Z,28.00
2018-01-27T13:32:16.232Z,29.06
2018-01-27T13:34:44.160Z,28.76
2018-01-27T13:37:12.098Z,29.35
2018-01-27T13:39:39.958Z,29.46
2018-01-27T13:42:07.823Z,27.90
2018-01-27T13:44:35.743Z,29.47
2018-01-27T13:47:03.590Z,28.85
2018-01-27T13:49:31.434Z,28.89
2018-01-27T13:51:59.550Z,29.20
2018-01-27T13:54:27.414Z,29.75
2018-01-27T13:56:55.276Z,30.33
2018-01-27T13:59:23.362Z,30.55
2018-01-27T14:01:51.214Z,30.68
2018-01-27T14:04:19.118Z,31.09
2018-01-27T14:06:47.024Z,30.81
2018-01-27T14:09:14.879Z,31.78
2018-01-27T14:11:42.754Z,33.36
2018-01-27T14:14:10.677Z,35.82
2018-01-27T14:16:38.542Z,37.84
2018-01-27T14:19:06.416Z,39.21
2018-01-27T14:21:34.651Z,41.01
2018-01-27T14:24:02.514Z,41.92
2018-01-27T14:26:30.403Z,42.63
2018-01-27T14:28:58.316Z,43.75
2018-01-27T14:31:26.165Z,44.82
2018-01-27T14:33:54.027Z,45.02
2018-01-27T14:36:33.838Z,45.54
2018-01-27T14:39:01.714Z,46.16
2018-01-27T14:41:29.923Z,46.99
2018-01-27T14:43:57.843Z,47.02
2018-01-27T14:46:25.716Z,47.26
2018-01-27T14:48:53.595Z,47.47
2018-01-27T14:51:21.588Z,47.71
2018-01-27T14:53:49.466Z,47.59
2018-01-27T14:56:18.133Z,47.67
2018-01-27T14:58:46.267Z,48.19
2018-01-27T15:01:14.172Z,48.17
2018-01-27T15:03:42.015Z,48.17
2018-01-27T15:06:09.907Z,48.39
2018-01-27T15:08:37.762Z,48.42
2018-01-27T15:11:05.641Z,48.32
2018-01-27T15:13:33.578Z,48.70
2018-01-27T15:16:01.451Z,48.95
2018-01-27T15:18:29.346Z,49.31
2018-01-27T15:20:57.296Z,49.78
2018-01-27T15:23:26.062Z,50.08
2018-01-27T15:25:53.906Z,50.58
2018-01-27T15:28:21.807Z,51.05
2018-01-27T15:30:49.703Z,52.13
2018-01-27T15:33:17.596Z,52.65
2018-01-27T15:35:45.502Z,53.58
2018-01-27T15:38:13.435Z,54.08
2018-01-27T15:40:41.266Z,54.75
2018-01-27T15:43:09.182Z,55.38
2018-01-27T15:45:37.119Z,56.34
2018-01-27T15:48:04.994Z,56.72
2018-01-27T15:50:32.990Z,57.16
2018-01-27T15:53:00.845Z,57.15
2018-01-27T15:55:28.909Z,57.22
2018-01-27T15:57:56.836Z,57.65
2018-01-27T16:00:24.734Z,57.93
2018-01-27T16:02:52.720Z,58.20
2018-01-27T16:05:21.554Z,58.45
2018-01-27T16:07:49.421Z,59.13
2018-01-27T16:10:17.291Z,59.66
2018-01-27T16:12:45.223Z,59.62
2018-01-27T16:15:13.087Z,59.84
2018-01-27T16:17:40.934Z,59.92
2018-01-27T16:20:09.162Z,60.03
2018-01-27T16:22:37.037Z,59.71
2018-01-27T16:25:04.940Z,59.82
2018-01-27T16:27:32.839Z,60.53
2018-01-27T16:30:00.773Z,60.72
2018-01-27T16:32:28.647Z,60.71
2018-01-27T16:34:56.548Z,60.95
2018-01-27T16:37:24.430Z,61.30
2018-01-27T16:39:52.393Z,61.01
2018-01-27T16:42:20.315Z,61.40
2018-01-27T16:44:48.275Z,61.08
2018-01-27T16:47:16.200Z,61.06
2018-01-27T16:49:44.171Z,61.14
2018-01-27T16:52:12.034Z,61.17
2018-01-27T16:54:39.914Z,61.26
2018-01-27T16:57:07.838Z,61.68
2018-01-27T16:59:35.681Z,61.82
2018-01-27T17:02:03.541Z,62.10
2018-01-27T17:04:32.058Z,61.88
2018-01-27T17:06:59.907Z,62.04
2018-01-27T17:09:27.758Z,61.89
2018-01-27T17:11:55.716Z,62.20
2018-01-27T17:14:23.559Z,61.96
2018-01-27T17:16:51.407Z,61.87
2018-01-27T17:19:19.315Z,62.15
2018-01-27T17:21:47.167Z,62.14
2018-01-27T17:24:15.005Z,62.36
2018-01-27T17:26:42.903Z,62.26
2018-01-27T17:29:10.746Z,62.36
2018-01-27T17:31:38.678Z,62.12
2018-01-27T17:34:06.834Z,62.43
2018-01-27T17:36:34.678Z,62.69
2018-01-27T17:39:02.531Z,62.75
2018-01-27T17:41:30.693Z,63.13
2018-01-27T17:43:58.564Z,62.76
2018-01-27T17:46:26.428Z,62.55
2018-01-27T17:48:54.323Z,63.11
2018-01-27T17:51:22.199Z,63.17
2018-01-27T17:53:51.046Z,63.46
2018-01-27T17:56:19.007Z,63.45
2018-01-27T17:58:46.856Z,63.62
2018-01-27T18:01:14.771Z,63.80
2018-01-27T18:03:42.659Z,63.70
2018-01-27T18:06:11.258Z,63.78
2018-01-27T18:08:39.115Z,63.65
2018-01-27T18:11:07.118Z,63.66
2018-01-27T18:13:34.946Z,63.53
2018-01-27T18:16:02.802Z,63.53
2018-01-27T18:18:30.758Z,63.17
2018-01-27T18:20:58.618Z,63.36
2018-01-27T18:23:26.456Z,63.35
2018-01-27T18:25:54.470Z,63.57
2018-01-27T18:28:22.339Z,63.63
2018-01-27T18:30:50.172Z,63.63
2018-01-27T18:33:18.100Z,63.39
2018-01-27T18:35:45.930Z,63.79
2018-01-27T18:38:13.766Z,64.21
2018-01-27T18:40:41.987Z,64.12
2018-01-27T18:43:09.882Z,64.23
2018-01-27T18:45:37.730Z,64.68
2018-01-27T18:48:05.662Z,65.30
2018-01-27T18:50:33.503Z,65.24
2018-01-27T18:53:01.347Z,65.24
2018-01-27T18:55:29.305Z,65.35
2018-01-27T18:57:57.204Z,65.39
2018-01-27T19:00:25.082Z,65.43
2018-01-27T19:02:52.967Z,65.25
2018-01-27T19:05:20.828Z,65.28
2018-01-27T19:07:48.861Z,65.71
2018-01-27T19:10:16.791Z,65.60
2018-01-27T19:12:44.655Z,65.96
2018-01-27T19:15:12.514Z,65.64
2018-01-27T19:17:41.196Z,65.81
2018-01-27T19:20:09.059Z,65.82
2018-01-27T19:22:36.907Z,65.80
2018-01-27T19:25:04.798Z,66.03
2018-01-27T19:27:32.648Z,65.90
2018-01-27T19:30:00.543Z,65.86
2018-01-27T19:32:28.436Z,65.82
2018-01-27T19:34:56.295Z,65.95
2018-01-27T19:37:24.164Z,65.84
2018-01-27T19:39:52.088Z,66.02
2018-01-27T19:42:19.983Z,66.41
2018-01-27T19:44:47.831Z,66.82
2018-01-27T19:47:16.035Z,67.08
2018-01-27T19:49:43.949Z,67.51
2018-01-27T19:52:11.809Z,67.72
2018-01-27T19:54:40.008Z,68.15
2018-01-27T19:57:07.871Z,68.12
2018-01-27T19:59:35.743Z,68.24
2018-01-27T20:02:03.666Z,68.12
2018-01-27T20:04:31.551Z,68.09
2018-01-27T20:06:59.420Z,67.97
2018-01-27T20:09:27.406Z,67.74
2018-01-27T20:11:55.250Z,67.91
2018-01-27T20:14:23.127Z,67.91
2018-01-27T20:16:51.055Z,68.43
2018-01-27T20:19:18.927Z,68.42
2018-01-27T20:21:46.798Z,68.37
2018-01-27T20:24:14.706Z,68.09
2018-01-27T20:26:42.563Z,68.01
2018-01-27T20:29:10.439Z,67.84
2018-01-27T20:31:38.626Z,67.59
2018-01-27T20:34:06.502Z,67.77
2018-01-27T20:36:34.416Z,68.10
2018-01-27T20:39:02.330Z,68.08
2018-01-27T20:41:30.256Z,68.17
2018-01-27T20:43:58.090Z,68.17
2018-01-27T20:46:26.006Z,68.22
2018-01-27T20:48:53.923Z,68.24
2018-01-27T20:51:21.818Z,68.42
2018-01-27T20:53:49.814Z,68.44
2018-01-27T20:56:17.723Z,68.83
2018-01-27T20:58:46.272Z,68.37
2018-01-27T21:01:14.223Z,68.50
2018-01-27T21:03:42.102Z,68.27
2018-01-27T21:06:09.982Z,68.46
2018-01-27T21:08:37.890Z,69.05
2018-01-27T21:11:07.249Z,68.90
2018-01-27T21:13:35.097Z,69.21
2018-01-27T21:16:03.079Z,69.26
2018-01-27T21:18:30.947Z,69.70
2018-01-27T21:20:58.812Z,69.54
2018-01-27T21:23:26.764Z,69.70
2018-01-27T21:25:54.686Z,69.85
2018-01-27T21:28:22.748Z,69.59
2018-01-27T21:30:50.691Z,69.84
2018-01-27T21:33:18.652Z,70.03
2018-01-27T21:35:46.503Z,69.93
2018-01-27T21:38:14.647Z,70.15
2018-01-27T21:40:42.538Z,70.31
2018-01-27T21:43:10.391Z,70.32
2018-01-27T21:45:38.703Z,70.39
2018-01-27T21:48:06.567Z,70.18
2018-01-27T21:50:34.417Z,70.19
2018-01-27T21:53:02.667Z,70.27
2018-01-27T21:55:30.531Z,70.59
2018-01-27T21:57:58.406Z,70.33
2018-01-27T22:00:26.326Z,70.16
2018-01-27T22:02:54.178Z,70.10
2018-01-27T22:05:22.022Z,69.92
2018-01-27T22:07:49.924Z,70.02
2018-01-27T22:10:17.778Z,70.24
2018-01-27T22:12:45.744Z,69.91
2018-01-27T22:15:13.678Z,69.88
2018-01-27T22:17:41.527Z,69.85
2018-01-27T22:20:09.377Z,69.94
2018-01-27T22:22:37.326Z,70.22
2018-01-27T22:25:05.190Z,70.51
2018-01-27T22:27:33.025Z,70.90
2018-01-27T22:30:01.144Z,70.87
2018-01-27T22:32:29.018Z,71.00
2018-01-27T22:34:56.892Z,71.06
2018-01-27T22:37:24.774Z,70.93
2018-01-27T22:39:52.623Z,70.64
2018-01-27T22:42:20.486Z,70.60
2018-01-27T22:44:48.414Z,70.64
2018-01-27T22:47:16.285Z,70.41
2018-01-27T22:49:44.169Z,70.39
2018-01-27T22:52:12.095Z,70.40
2018-01-27T22:54:39.995Z,70.41
2018-01-27T22:57:07.870Z,70.22
2018-01-27T22:59:35.806Z,69.88
2018-01-27T23:02:03.665Z,69.94
2018-01-27T23:04:31.519Z,70.12
2018-01-27T23:06:59.626Z,70.39
2018-01-27T23:09:27.484Z,70.60
2018-01-27T23:11:55.335Z,70.66
2018-01-27T23:14:24.315Z,70.96
2018-01-27T23:16:52.174Z,70.94
2018-01-27T23:19:20.049Z,70.99
2018-01-27T23:21:48.466Z,71.29
2018-01-27T23:24:16.363Z,71.64
2018-01-27T23:26:44.231Z,71.85
2018-01-27T23:29:12.148Z,71.68
2018-01-27T23:31:40.035Z,71.84
2018-01-27T23:34:07.914Z,72.05
2018-01-27T23:36:35.816Z,71.74
2018-01-27T23:39:03.763Z,71.72
2018-01-27T23:41:31.664Z,71.38
2018-01-27T23:43:59.823Z,71.61
2018-01-27T23:46:27.693Z,71.88
2018-01-27T23:48:55.544Z,72.12
2018-01-27T23:51:24.430Z,72.21
2018-01-27T23:53:52.283Z,72.38
2018-01-27T23:56:20.118Z,72.25
2018-01-27T23:58:48.087Z,72.03
